sensor_id;sensor_type;location;lat;lon;timestamp;P1;durP1;ratioP1;P2;durP2;ratioP2
209;SDS011;90;48.810;9.120;2023-01-25T00:01:37;48.45;;;21.30;;
209;SDS011;90;48.810;9.120;2023-01-25T00:04:04;47.95;;;21.75;;
209;SDS011;90;48.810;9.120;2023-01-25T00:06:31;44.20;;;20.75;;
209;SDS011;90;48.810;9.120;2023-01-25T00:09:00;52.83;;;22.17;;
209;SDS011;90;48.810;9.120;2023-01-25T00:11:27;47.35;;;21.92;;
209;SDS011;90;48.810;9.120;2023-01-25T00:13:54;48.63;;;21.17;;
209;SDS011;90;48.810;9.120;2023-01-25T00:16:23;42.28;;;21.08;;
209;SDS011;90;48.810;9.120;2023-01-25T00:18:50;54.40;;;22.98;;
209;SDS011;90;48.810;9.120;2023-01-25T00:21:18;47.22;;;21.17;;
209;SDS011;90;48.810;9.120;2023-01-25T00:23:46;55.33;;;22.33;;
209;SDS011;90;48.810;9.120;2023-01-25T00:26:14;48.78;;;23.45;;
209;SDS011;90;48.810;9.120;2023-01-25T00:28:41;50.92;;;21.90;;
209;SDS011;90;48.810;9.120;2023-01-25T00:31:09;51.20;;;22.50;;
209;SDS011;90;48.810;9.120;2023-01-25T00:33:48;57.33;;;22.35;;
209;SDS011;90;48.810;9.120;2023-01-25T00:36:25;48.13;;;21.15;;
209;SDS011;90;48.810;9.120;2023-01-25T00:39:05;49.53;;;21.20;;
209;SDS011;90;48.810;9.120;2023-01-25T00:41:35;43.65;;;19.77;;
209;SDS011;90;48.810;9.120;2023-01-25T00:44:03;48.40;;;20.60;;
209;SDS011;90;48.810;9.120;2023-01-25T00:46:30;46.25;;;21.00;;
209;SDS011;90;48.810;9.120;2023-01-25T00:48:58;53.10;;;21.13;;
209;SDS011;90;48.810;9.120;2023-01-25T00:51:26;44.30;;;21.02;;
209;SDS011;90;48.810;9.120;2023-01-25T00:53:53;48.70;;;20.67;;
209;SDS011;90;48.810;9.120;2023-01-25T00:56:20;46.83;;;20.75;;
209;SDS011;90;48.810;9.120;2023-01-25T00:58:47;45.58;;;20.52;;
209;SDS011;90;48.810;9.120;2023-01-25T01:01:14;48.63;;;21.73;;
209;SDS011;90;48.810;9.120;2023-01-25T01:03:41;48.58;;;21.25;;
209;SDS011;90;48.810;9.120;2023-01-25T01:06:10;46.15;;;20.33;;
209;SDS011;90;48.810;9.120;2023-01-25T01:08:38;46.88;;;21.73;;
209;SDS011;90;48.810;9.120;2023-01-25T01:11:07;42.55;;;19.92;;
209;SDS011;90;48.810;9.120;2023-01-25T01:13:35;44.33;;;19.95;;
209;SDS011;90;48.810;9.120;2023-01-25T01:16:04;44.78;;;20.17;;
209;SDS011;90;48.810;9.120;2023-01-25T01:18:35;44.28;;;19.80;;
209;SDS011;90;48.810;9.120;2023-01-25T01:21:04;44.05;;;20.35;;
209;SDS011;90;48.810;9.120;2023-01-25T01:23:33;45.83;;;19.45;;
209;SDS011;90;48.810;9.120;2023-01-25T01:26:02;50.25;;;20.38;;
209;SDS011;90;48.810;9.120;2023-01-25T01:28:30;41.83;;;19.70;;
209;SDS011;90;48.810;9.120;2023-01-25T01:30:58;47.85;;;21.02;;
209;SDS011;90;48.810;9.120;2023-01-25T01:33:26;44.50;;;19.90;;
209;SDS011;90;48.810;9.120;2023-01-25T01:35:53;41.72;;;20.00;;
209;SDS011;90;48.810;9.120;2023-01-25T01:38:20;48.80;;;20.27;;
209;SDS011;90;48.810;9.120;2023-01-25T01:40:49;41.15;;;18.73;;
209;SDS011;90;48.810;9.120;2023-01-25T01:43:16;40.08;;;19.25;;
209;SDS011;90;48.810;9.120;2023-01-25T01:45:50;41.17;;;18.83;;
209;SDS011;90;48.810;9.120;2023-01-25T01:48:20;50.22;;;19.08;;
209;SDS011;90;48.810;9.120;2023-01-25T01:51:00;43.63;;;18.67;;
209;SDS011;90;48.810;9.120;2023-01-25T01:53:31;45.00;;;19.13;;
209;SDS011;90;48.810;9.120;2023-01-25T01:56:01;37.10;;;18.02;;
209;SDS011;90;48.810;9.120;2023-01-25T01:58:33;44.05;;;18.98;;
209;SDS011;90;48.810;9.120;2023-01-25T02:01:01;46.45;;;19.45;;
209;SDS011;90;48.810;9.120;2023-01-25T02:03:29;41.38;;;19.30;;
209;SDS011;90;48.810;9.120;2023-01-25T02:05:59;48.38;;;19.50;;
209;SDS011;90;48.810;9.120;2023-01-25T02:08:31;39.00;;;19.17;;
209;SDS011;90;48.810;9.120;2023-01-25T02:11:02;45.63;;;19.30;;
209;SDS011;90;48.810;9.120;2023-01-25T02:13:29;39.67;;;18.88;;
209;SDS011;90;48.810;9.120;2023-01-25T02:15:57;37.55;;;18.13;;
209;SDS011;90;48.810;9.120;2023-01-25T02:18:24;41.45;;;18.95;;
209;SDS011;90;48.810;9.120;2023-01-25T02:20:52;42.17;;;19.17;;
209;SDS011;90;48.810;9.120;2023-01-25T02:23:21;43.15;;;18.33;;
209;SDS011;90;48.810;9.120;2023-01-25T02:25:56;44.20;;;19.65;;
209;SDS011;90;48.810;9.120;2023-01-25T02:28:28;48.83;;;20.40;;
209;SDS011;90;48.810;9.120;2023-01-25T02:31:00;37.53;;;17.70;;
209;SDS011;90;48.810;9.120;2023-01-25T02:33:27;40.95;;;18.13;;
209;SDS011;90;48.810;9.120;2023-01-25T02:35:55;46.20;;;19.58;;
209;SDS011;90;48.810;9.120;2023-01-25T02:38:26;39.25;;;19.42;;
209;SDS011;90;48.810;9.120;2023-01-25T02:40:56;42.42;;;18.00;;
209;SDS011;90;48.810;9.120;2023-01-25T02:43:29;42.58;;;18.73;;
209;SDS011;90;48.810;9.120;2023-01-25T02:46:01;44.95;;;19.15;;
209;SDS011;90;48.810;9.120;2023-01-25T02:48:35;49.67;;;19.90;;
209;SDS011;90;48.810;9.120;2023-01-25T02:51:05;37.83;;;18.13;;
209;SDS011;90;48.810;9.120;2023-01-25T02:53:33;42.30;;;18.70;;
209;SDS011;90;48.810;9.120;2023-01-25T02:56:01;42.95;;;17.25;;
209;SDS011;90;48.810;9.120;2023-01-25T02:58:29;41.70;;;17.98;;
209;SDS011;90;48.810;9.120;2023-01-25T03:00:56;38.80;;;17.00;;
209;SDS011;90;48.810;9.120;2023-01-25T03:03:24;39.28;;;18.90;;
209;SDS011;90;48.810;9.120;2023-01-25T03:05:51;44.00;;;18.92;;
209;SDS011;90;48.810;9.120;2023-01-25T03:08:18;42.85;;;18.17;;
209;SDS011;90;48.810;9.120;2023-01-25T03:10:45;43.25;;;17.35;;
209;SDS011;90;48.810;9.120;2023-01-25T03:13:13;38.97;;;17.27;;
209;SDS011;90;48.810;9.120;2023-01-25T03:15:41;39.28;;;17.75;;
209;SDS011;90;48.810;9.120;2023-01-25T03:18:08;39.92;;;17.60;;
209;SDS011;90;48.810;9.120;2023-01-25T03:20:35;41.13;;;17.27;;
209;SDS011;90;48.810;9.120;2023-01-25T03:23:02;35.47;;;15.75;;
209;SDS011;90;48.810;9.120;2023-01-25T03:25:29;38.72;;;17.05;;
209;SDS011;90;48.810;9.120;2023-01-25T03:27:57;45.67;;;18.92;;
209;SDS011;90;48.810;9.120;2023-01-25T03:30:25;45.00;;;19.13;;
209;SDS011;90;48.810;9.120;2023-01-25T03:32:52;37.75;;;17.42;;
209;SDS011;90;48.810;9.120;2023-01-25T03:35:19;38.00;;;17.52;;
209;SDS011;90;48.810;9.120;2023-01-25T03:37:47;39.47;;;17.60;;
209;SDS011;90;48.810;9.120;2023-01-25T03:40:14;38.25;;;17.63;;
209;SDS011;90;48.810;9.120;2023-01-25T03:42:41;44.90;;;18.13;;
209;SDS011;90;48.810;9.120;2023-01-25T03:45:09;38.75;;;17.70;;
209;SDS011;90;48.810;9.120;2023-01-25T03:47:39;42.55;;;18.23;;
209;SDS011;90;48.810;9.120;2023-01-25T03:50:07;38.17;;;17.30;;
209;SDS011;90;48.810;9.120;2023-01-25T03:52:35;36.03;;;18.20;;
209;SDS011;90;48.810;9.120;2023-01-25T03:55:06;40.10;;;18.30;;
209;SDS011;90;48.810;9.120;2023-01-25T03:57:34;39.67;;;18.10;;
209;SDS011;90;48.810;9.120;2023-01-25T04:00:01;39.15;;;17.05;;
209;SDS011;90;48.810;9.120;2023-01-25T04:02:28;45.05;;;17.95;;
209;SDS011;90;48.810;9.120;2023-01-25T04:04:57;36.67;;;17.17;;
209;SDS011;90;48.810;9.120;2023-01-25T04:07:24;44.22;;;18.08;;
209;SDS011;90;48.810;9.120;2023-01-25T04:09:51;45.15;;;18.05;;
209;SDS011;90;48.810;9.120;2023-01-25T04:12:18;40.92;;;18.05;;
209;SDS011;90;48.810;9.120;2023-01-25T04:14:45;38.92;;;16.80;;
209;SDS011;90;48.810;9.120;2023-01-25T04:17:12;38.08;;;17.20;;
209;SDS011;90;48.810;9.120;2023-01-25T04:19:39;38.90;;;16.98;;
209;SDS011;90;48.810;9.120;2023-01-25T04:22:08;31.75;;;15.57;;
209;SDS011;90;48.810;9.120;2023-01-25T04:24:36;38.65;;;16.75;;
209;SDS011;90;48.810;9.120;2023-01-25T04:27:04;35.75;;;15.95;;
209;SDS011;90;48.810;9.120;2023-01-25T04:29:31;41.70;;;16.60;;
209;SDS011;90;48.810;9.120;2023-01-25T04:31:58;36.10;;;16.58;;
209;SDS011;90;48.810;9.120;2023-01-25T04:34:26;44.78;;;16.95;;
209;SDS011;90;48.810;9.120;2023-01-25T04:36:53;38.25;;;16.17;;
209;SDS011;90;48.810;9.120;2023-01-25T04:39:21;34.63;;;16.25;;
209;SDS011;90;48.810;9.120;2023-01-25T04:41:48;33.45;;;16.38;;
209;SDS011;90;48.810;9.120;2023-01-25T04:44:15;35.28;;;15.80;;
209;SDS011;90;48.810;9.120;2023-01-25T04:46:42;33.65;;;15.38;;
209;SDS011;90;48.810;9.120;2023-01-25T04:49:09;38.95;;;16.65;;
209;SDS011;90;48.810;9.120;2023-01-25T04:51:36;32.30;;;15.45;;
209;SDS011;90;48.810;9.120;2023-01-25T04:54:03;31.45;;;14.15;;
209;SDS011;90;48.810;9.120;2023-01-25T04:56:32;34.08;;;15.18;;
209;SDS011;90;48.810;9.120;2023-01-25T04:58:59;30.77;;;15.32;;
209;SDS011;90;48.810;9.120;2023-01-25T05:01:26;31.50;;;14.00;;
209;SDS011;90;48.810;9.120;2023-01-25T05:03:53;34.55;;;15.93;;
209;SDS011;90;48.810;9.120;2023-01-25T05:06:20;32.58;;;15.32;;
209;SDS011;90;48.810;9.120;2023-01-25T05:08:47;34.88;;;15.13;;
209;SDS011;90;48.810;9.120;2023-01-25T05:11:14;32.85;;;15.02;;
209;SDS011;90;48.810;9.120;2023-01-25T05:13:43;31.02;;;14.80;;
209;SDS011;90;48.810;9.120;2023-01-25T05:16:10;35.90;;;16.95;;
209;SDS011;90;48.810;9.120;2023-01-25T05:18:37;34.72;;;15.60;;
209;SDS011;90;48.810;9.120;2023-01-25T05:21:04;34.35;;;16.20;;
209;SDS011;90;48.810;9.120;2023-01-25T05:23:55;33.00;;;15.27;;
209;SDS011;90;48.810;9.120;2023-01-25T05:26:22;33.63;;;15.13;;
209;SDS011;90;48.810;9.120;2023-01-25T05:29:08;32.67;;;15.30;;
209;SDS011;90;48.810;9.120;2023-01-25T05:31:35;35.28;;;17.33;;
209;SDS011;90;48.810;9.120;2023-01-25T05:34:03;34.05;;;15.25;;
209;SDS011;90;48.810;9.120;2023-01-25T05:36:30;32.72;;;15.70;;
209;SDS011;90;48.810;9.120;2023-01-25T05:38:57;37.17;;;15.15;;
209;SDS011;90;48.810;9.120;2023-01-25T05:41:24;35.88;;;14.38;;
209;SDS011;90;48.810;9.120;2023-01-25T05:43:54;42.38;;;15.93;;
209;SDS011;90;48.810;9.120;2023-01-25T05:46:22;30.50;;;14.85;;
209;SDS011;90;48.810;9.120;2023-01-25T05:48:50;33.53;;;15.57;;
209;SDS011;90;48.810;9.120;2023-01-25T05:51:16;27.83;;;13.85;;
209;SDS011;90;48.810;9.120;2023-01-25T05:53:43;29.90;;;14.70;;
209;SDS011;90;48.810;9.120;2023-01-25T05:56:10;33.00;;;15.75;;
209;SDS011;90;48.810;9.120;2023-01-25T05:58:37;28.67;;;14.43;;
209;SDS011;90;48.810;9.120;2023-01-25T06:01:05;32.42;;;15.02;;
209;SDS011;90;48.810;9.120;2023-01-25T06:03:34;28.80;;;13.25;;
209;SDS011;90;48.810;9.120;2023-01-25T06:06:01;30.35;;;13.23;;
209;SDS011;90;48.810;9.120;2023-01-25T06:08:29;31.52;;;13.63;;
209;SDS011;90;48.810;9.120;2023-01-25T06:11:04;26.98;;;13.85;;
209;SDS011;90;48.810;9.120;2023-01-25T06:13:34;27.95;;;13.88;;
209;SDS011;90;48.810;9.120;2023-01-25T06:16:02;28.42;;;13.57;;
209;SDS011;90;48.810;9.120;2023-01-25T06:18:29;26.05;;;13.80;;
209;SDS011;90;48.810;9.120;2023-01-25T06:20:59;31.80;;;13.30;;
209;SDS011;90;48.810;9.120;2023-01-25T06:23:28;27.38;;;13.52;;
209;SDS011;90;48.810;9.120;2023-01-25T06:25:59;27.35;;;13.77;;
209;SDS011;90;48.810;9.120;2023-01-25T06:28:28;28.50;;;13.63;;
209;SDS011;90;48.810;9.120;2023-01-25T06:31:01;29.13;;;14.27;;
209;SDS011;90;48.810;9.120;2023-01-25T06:33:30;27.85;;;13.63;;
209;SDS011;90;48.810;9.120;2023-01-25T06:36:02;32.65;;;13.85;;
209;SDS011;90;48.810;9.120;2023-01-25T06:38:31;27.85;;;13.00;;
209;SDS011;90;48.810;9.120;2023-01-25T06:40:58;29.88;;;13.77;;
209;SDS011;90;48.810;9.120;2023-01-25T06:43:26;29.15;;;13.35;;
209;SDS011;90;48.810;9.120;2023-01-25T06:45:56;28.50;;;13.40;;
209;SDS011;90;48.810;9.120;2023-01-25T06:48:23;30.52;;;13.55;;
209;SDS011;90;48.810;9.120;2023-01-25T06:50:54;26.08;;;13.48;;
209;SDS011;90;48.810;9.120;2023-01-25T06:53:24;27.85;;;14.02;;
209;SDS011;90;48.810;9.120;2023-01-25T06:55:56;28.65;;;13.55;;
209;SDS011;90;48.810;9.120;2023-01-25T06:58:24;24.15;;;12.80;;
209;SDS011;90;48.810;9.120;2023-01-25T07:00:52;28.13;;;13.25;;
209;SDS011;90;48.810;9.120;2023-01-25T07:03:19;25.55;;;13.18;;
209;SDS011;90;48.810;9.120;2023-01-25T07:05:46;23.92;;;12.10;;
209;SDS011;90;48.810;9.120;2023-01-25T07:08:15;27.77;;;13.50;;
209;SDS011;90;48.810;9.120;2023-01-25T07:10:44;28.38;;;13.45;;
209;SDS011;90;48.810;9.120;2023-01-25T07:13:19;27.05;;;13.68;;
209;SDS011;90;48.810;9.120;2023-01-25T07:15:50;25.40;;;12.85;;
209;SDS011;90;48.810;9.120;2023-01-25T07:18:18;29.70;;;13.85;;
209;SDS011;90;48.810;9.120;2023-01-25T07:20:46;28.40;;;14.80;;
209;SDS011;90;48.810;9.120;2023-01-25T07:23:13;30.13;;;13.35;;
209;SDS011;90;48.810;9.120;2023-01-25T07:25:44;28.17;;;14.07;;
209;SDS011;90;48.810;9.120;2023-01-25T07:28:11;26.90;;;13.27;;
209;SDS011;90;48.810;9.120;2023-01-25T07:30:38;26.92;;;13.73;;
209;SDS011;90;48.810;9.120;2023-01-25T07:33:06;42.03;;;16.85;;
209;SDS011;90;48.810;9.120;2023-01-25T07:35:33;28.33;;;14.48;;
209;SDS011;90;48.810;9.120;2023-01-25T07:38:01;30.02;;;13.65;;
209;SDS011;90;48.810;9.120;2023-01-25T07:40:28;27.42;;;13.88;;
209;SDS011;90;48.810;9.120;2023-01-25T07:42:57;28.55;;;13.13;;
209;SDS011;90;48.810;9.120;2023-01-25T07:45:24;25.60;;;13.70;;
209;SDS011;90;48.810;9.120;2023-01-25T07:47:54;29.80;;;13.27;;
209;SDS011;90;48.810;9.120;2023-01-25T07:50:23;29.48;;;14.90;;
209;SDS011;90;48.810;9.120;2023-01-25T07:52:51;34.05;;;13.55;;
209;SDS011;90;48.810;9.120;2023-01-25T07:55:18;23.67;;;13.05;;
209;SDS011;90;48.810;9.120;2023-01-25T07:57:46;27.88;;;12.80;;
209;SDS011;90;48.810;9.120;2023-01-25T08:00:15;25.92;;;12.55;;
209;SDS011;90;48.810;9.120;2023-01-25T08:02:43;27.48;;;14.18;;
209;SDS011;90;48.810;9.120;2023-01-25T08:05:10;28.13;;;13.18;;
209;SDS011;90;48.810;9.120;2023-01-25T08:07:37;27.40;;;14.00;;
209;SDS011;90;48.810;9.120;2023-01-25T08:10:05;24.52;;;12.57;;
209;SDS011;90;48.810;9.120;2023-01-25T08:12:32;30.40;;;13.10;;
209;SDS011;90;48.810;9.120;2023-01-25T08:15:00;28.70;;;13.55;;
209;SDS011;90;48.810;9.120;2023-01-25T08:17:30;27.30;;;13.38;;
209;SDS011;90;48.810;9.120;2023-01-25T08:19:57;23.98;;;12.70;;
209;SDS011;90;48.810;9.120;2023-01-25T08:22:25;29.10;;;13.80;;
209;SDS011;90;48.810;9.120;2023-01-25T08:24:52;28.02;;;13.30;;
209;SDS011;90;48.810;9.120;2023-01-25T08:27:20;22.02;;;12.77;;
209;SDS011;90;48.810;9.120;2023-01-25T08:29:47;24.80;;;12.57;;
209;SDS011;90;48.810;9.120;2023-01-25T08:32:18;29.73;;;13.98;;
209;SDS011;90;48.810;9.120;2023-01-25T08:34:48;21.70;;;12.18;;
209;SDS011;90;48.810;9.120;2023-01-25T08:37:15;25.73;;;12.98;;
209;SDS011;90;48.810;9.120;2023-01-25T08:39:42;26.55;;;12.98;;
209;SDS011;90;48.810;9.120;2023-01-25T08:42:09;25.98;;;12.55;;
209;SDS011;90;48.810;9.120;2023-01-25T08:44:37;27.30;;;13.25;;
209;SDS011;90;48.810;9.120;2023-01-25T08:47:04;23.13;;;12.88;;
209;SDS011;90;48.810;9.120;2023-01-25T08:49:31;26.67;;;13.90;;
209;SDS011;90;48.810;9.120;2023-01-25T08:52:00;23.85;;;13.02;;
209;SDS011;90;48.810;9.120;2023-01-25T08:54:28;25.13;;;13.55;;
209;SDS011;90;48.810;9.120;2023-01-25T08:56:55;23.05;;;11.82;;
209;SDS011;90;48.810;9.120;2023-01-25T08:59:22;28.48;;;12.98;;
209;SDS011;90;48.810;9.120;2023-01-25T09:01:49;24.13;;;12.60;;
209;SDS011;90;48.810;9.120;2023-01-25T09:04:17;25.63;;;13.88;;
209;SDS011;90;48.810;9.120;2023-01-25T09:06:44;25.25;;;13.05;;
209;SDS011;90;48.810;9.120;2023-01-25T09:09:13;27.77;;;13.90;;
209;SDS011;90;48.810;9.120;2023-01-25T09:11:40;22.98;;;12.40;;
209;SDS011;90;48.810;9.120;2023-01-25T09:14:08;26.27;;;13.73;;
209;SDS011;90;48.810;9.120;2023-01-25T09:16:35;21.98;;;12.70;;
209;SDS011;90;48.810;9.120;2023-01-25T09:19:03;24.77;;;12.82;;
209;SDS011;90;48.810;9.120;2023-01-25T09:21:31;27.05;;;13.43;;
209;SDS011;90;48.810;9.120;2023-01-25T09:23:59;23.15;;;12.32;;
209;SDS011;90;48.810;9.120;2023-01-25T09:26:28;25.98;;;12.70;;
209;SDS011;90;48.810;9.120;2023-01-25T09:28:55;25.15;;;12.73;;
209;SDS011;90;48.810;9.120;2023-01-25T09:31:23;23.58;;;12.70;;
209;SDS011;90;48.810;9.120;2023-01-25T09:33:50;21.52;;;11.88;;
209;SDS011;90;48.810;9.120;2023-01-25T09:36:18;26.90;;;13.23;;
209;SDS011;90;48.810;9.120;2023-01-25T09:38:45;26.52;;;12.75;;
209;SDS011;90;48.810;9.120;2023-01-25T09:41:30;21.35;;;12.32;;
209;SDS011;90;48.810;9.120;2023-01-25T09:44:14;22.90;;;12.15;;
209;SDS011;90;48.810;9.120;2023-01-25T09:46:57;25.48;;;12.68;;
209;SDS011;90;48.810;9.120;2023-01-25T09:49:30;23.17;;;13.48;;
209;SDS011;90;48.810;9.120;2023-01-25T09:52:15;26.50;;;12.70;;
209;SDS011;90;48.810;9.120;2023-01-25T09:55:12;25.77;;;12.98;;
209;SDS011;90;48.810;9.120;2023-01-25T09:57:44;24.70;;;12.70;;
209;SDS011;90;48.810;9.120;2023-01-25T10:00:13;26.88;;;12.75;;
209;SDS011;90;48.810;9.120;2023-01-25T10:02:46;26.75;;;13.32;;
209;SDS011;90;48.810;9.120;2023-01-25T10:05:20;29.80;;;13.55;;
209;SDS011;90;48.810;9.120;2023-01-25T10:07:52;27.33;;;12.82;;
209;SDS011;90;48.810;9.120;2023-01-25T10:10:25;25.80;;;13.43;;
209;SDS011;90;48.810;9.120;2023-01-25T10:12:59;27.27;;;12.85;;
209;SDS011;90;48.810;9.120;2023-01-25T10:15:29;29.70;;;13.48;;
209;SDS011;90;48.810;9.120;2023-01-25T10:18:00;26.65;;;13.75;;
209;SDS011;90;48.810;9.120;2023-01-25T10:20:34;29.40;;;13.27;;
209;SDS011;90;48.810;9.120;2023-01-25T10:23:20;26.55;;;13.80;;
209;SDS011;90;48.810;9.120;2023-01-25T10:25:59;25.13;;;12.57;;
209;SDS011;90;48.810;9.120;2023-01-25T10:28:35;28.73;;;13.55;;
209;SDS011;90;48.810;9.120;2023-01-25T10:31:10;24.23;;;13.38;;
209;SDS011;90;48.810;9.120;2023-01-25T10:33:44;25.25;;;13.13;;
209;SDS011;90;48.810;9.120;2023-01-25T10:36:13;30.77;;;14.40;;
209;SDS011;90;48.810;9.120;2023-01-25T10:38:44;29.35;;;14.60;;
209;SDS011;90;48.810;9.120;2023-01-25T10:41:15;22.30;;;12.35;;
209;SDS011;90;48.810;9.120;2023-01-25T10:43:54;25.48;;;13.73;;
209;SDS011;90;48.810;9.120;2023-01-25T10:46:35;24.77;;;13.65;;
209;SDS011;90;48.810;9.120;2023-01-25T10:49:11;27.85;;;15.00;;
209;SDS011;90;48.810;9.120;2023-01-25T10:51:46;27.95;;;14.30;;
209;SDS011;90;48.810;9.120;2023-01-25T10:54:13;32.63;;;15.00;;
209;SDS011;90;48.810;9.120;2023-01-25T10:56:41;25.38;;;13.82;;
209;SDS011;90;48.810;9.120;2023-01-25T10:59:16;30.52;;;14.98;;
209;SDS011;90;48.810;9.120;2023-01-25T11:01:45;29.70;;;13.88;;
209;SDS011;90;48.810;9.120;2023-01-25T11:04:26;26.77;;;13.82;;
209;SDS011;90;48.810;9.120;2023-01-25T11:06:59;28.02;;;13.80;;
209;SDS011;90;48.810;9.120;2023-01-25T11:09:31;30.92;;;14.52;;
209;SDS011;90;48.810;9.120;2023-01-25T11:12:01;31.40;;;14.70;;
209;SDS011;90;48.810;9.120;2023-01-25T11:14:31;28.27;;;14.80;;
209;SDS011;90;48.810;9.120;2023-01-25T11:17:01;26.60;;;14.05;;
209;SDS011;90;48.810;9.120;2023-01-25T11:19:31;30.60;;;14.85;;
209;SDS011;90;48.810;9.120;2023-01-25T11:22:00;26.67;;;13.95;;
209;SDS011;90;48.810;9.120;2023-01-25T11:24:28;34.05;;;15.27;;
209;SDS011;90;48.810;9.120;2023-01-25T11:27:10;32.92;;;15.30;;
209;SDS011;90;48.810;9.120;2023-01-25T11:29:47;32.28;;;15.65;;
209;SDS011;90;48.810;9.120;2023-01-25T11:32:32;33.15;;;15.60;;
209;SDS011;90;48.810;9.120;2023-01-25T11:35:00;31.20;;;15.55;;
209;SDS011;90;48.810;9.120;2023-01-25T11:37:34;32.38;;;15.05;;
209;SDS011;90;48.810;9.120;2023-01-25T11:40:12;32.28;;;15.57;;
209;SDS011;90;48.810;9.120;2023-01-25T11:42:46;31.25;;;14.85;;
209;SDS011;90;48.810;9.120;2023-01-25T11:45:39;32.30;;;15.68;;
209;SDS011;90;48.810;9.120;2023-01-25T11:51:20;30.27;;;15.65;;
209;SDS011;90;48.810;9.120;2023-01-25T11:53:54;35.28;;;14.38;;
209;SDS011;90;48.810;9.120;2023-01-25T11:56:40;30.08;;;14.52;;
209;SDS011;90;48.810;9.120;2023-01-25T11:59:27;33.78;;;16.25;;
209;SDS011;90;48.810;9.120;2023-01-25T12:02:26;33.28;;;14.80;;
209;SDS011;90;48.810;9.120;2023-01-25T12:05:25;28.92;;;14.57;;
209;SDS011;90;48.810;9.120;2023-01-25T12:08:06;29.80;;;14.82;;
209;SDS011;90;48.810;9.120;2023-01-25T12:10:49;37.30;;;16.55;;
209;SDS011;90;48.810;9.120;2023-01-25T12:13:23;35.20;;;16.02;;
209;SDS011;90;48.810;9.120;2023-01-25T12:16:05;33.85;;;15.95;;
209;SDS011;90;48.810;9.120;2023-01-25T12:18:51;32.78;;;15.18;;
209;SDS011;90;48.810;9.120;2023-01-25T12:21:41;32.83;;;14.45;;
209;SDS011;90;48.810;9.120;2023-01-25T12:24:25;33.90;;;16.15;;
209;SDS011;90;48.810;9.120;2023-01-25T12:27:06;32.10;;;15.93;;
209;SDS011;90;48.810;9.120;2023-01-25T12:29:45;31.98;;;15.20;;
209;SDS011;90;48.810;9.120;2023-01-25T12:32:20;32.67;;;15.13;;
209;SDS011;90;48.810;9.120;2023-01-25T12:34:54;32.75;;;15.30;;
209;SDS011;90;48.810;9.120;2023-01-25T12:37:28;37.25;;;16.35;;
209;SDS011;90;48.810;9.120;2023-01-25T12:40:03;39.83;;;16.50;;
209;SDS011;90;48.810;9.120;2023-01-25T12:42:36;35.55;;;17.08;;
209;SDS011;90;48.810;9.120;2023-01-25T12:45:10;30.42;;;15.40;;
209;SDS011;90;48.810;9.120;2023-01-25T12:47:42;40.55;;;17.17;;
209;SDS011;90;48.810;9.120;2023-01-25T12:50:16;34.10;;;16.27;;
209;SDS011;90;48.810;9.120;2023-01-25T12:52:47;37.15;;;15.93;;
209;SDS011;90;48.810;9.120;2023-01-25T12:55:17;30.60;;;14.55;;
209;SDS011;90;48.810;9.120;2023-01-25T12:57:46;33.90;;;16.35;;
209;SDS011;90;48.810;9.120;2023-01-25T13:00:20;34.85;;;17.00;;
209;SDS011;90;48.810;9.120;2023-01-25T13:02:53;34.33;;;15.45;;
209;SDS011;90;48.810;9.120;2023-01-25T13:05:33;38.25;;;17.02;;
209;SDS011;90;48.810;9.120;2023-01-25T13:08:15;38.03;;;17.75;;
209;SDS011;90;48.810;9.120;2023-01-25T13:10:48;36.22;;;16.35;;
209;SDS011;90;48.810;9.120;2023-01-25T13:13:21;39.50;;;18.42;;
209;SDS011;90;48.810;9.120;2023-01-25T13:15:50;43.85;;;17.63;;
209;SDS011;90;48.810;9.120;2023-01-25T13:18:37;36.80;;;17.42;;
209;SDS011;90;48.810;9.120;2023-01-25T13:21:10;43.88;;;18.70;;
209;SDS011;90;48.810;9.120;2023-01-25T13:24:10;40.70;;;17.20;;
209;SDS011;90;48.810;9.120;2023-01-25T13:26:45;41.42;;;18.58;;
209;SDS011;90;48.810;9.120;2023-01-25T13:35:25;38.90;;;16.98;;
209;SDS011;90;48.810;9.120;2023-01-25T13:38:00;32.40;;;16.13;;
209;SDS011;90;48.810;9.120;2023-01-25T13:40:30;37.67;;;18.30;;
209;SDS011;90;48.810;9.120;2023-01-25T13:43:00;33.92;;;16.63;;
209;SDS011;90;48.810;9.120;2023-01-25T13:45:29;40.28;;;18.30;;
209;SDS011;90;48.810;9.120;2023-01-25T13:48:00;41.17;;;16.77;;
209;SDS011;90;48.810;9.120;2023-01-25T13:50:32;41.25;;;18.80;;
209;SDS011;90;48.810;9.120;2023-01-25T13:53:04;37.65;;;18.10;;
209;SDS011;90;48.810;9.120;2023-01-25T13:55:43;41.63;;;19.92;;
209;SDS011;90;48.810;9.120;2023-01-25T13:58:14;42.42;;;19.15;;
209;SDS011;90;48.810;9.120;2023-01-25T14:00:47;45.03;;;19.85;;
209;SDS011;90;48.810;9.120;2023-01-25T14:03:15;40.30;;;19.88;;
209;SDS011;90;48.810;9.120;2023-01-25T14:05:51;42.88;;;19.00;;
209;SDS011;90;48.810;9.120;2023-01-25T14:08:21;40.75;;;19.25;;
209;SDS011;90;48.810;9.120;2023-01-25T14:10:50;44.67;;;21.02;;
209;SDS011;90;48.810;9.120;2023-01-25T14:13:18;41.13;;;19.63;;
209;SDS011;90;48.810;9.120;2023-01-25T14:15:52;41.50;;;19.67;;
209;SDS011;90;48.810;9.120;2023-01-25T14:18:25;46.75;;;20.65;;
209;SDS011;90;48.810;9.120;2023-01-25T14:21:08;46.33;;;21.70;;
209;SDS011;90;48.810;9.120;2023-01-25T14:23:39;42.00;;;19.98;;
209;SDS011;90;48.810;9.120;2023-01-25T14:26:15;41.53;;;20.17;;
209;SDS011;90;48.810;9.120;2023-01-25T14:28:48;49.97;;;21.25;;
209;SDS011;90;48.810;9.120;2023-01-25T14:31:18;45.65;;;22.20;;
209;SDS011;90;48.810;9.120;2023-01-25T14:33:48;44.08;;;20.65;;
209;SDS011;90;48.810;9.120;2023-01-25T14:36:25;46.08;;;21.05;;
209;SDS011;90;48.810;9.120;2023-01-25T14:38:54;48.05;;;21.27;;
209;SDS011;90;48.810;9.120;2023-01-25T14:41:24;50.47;;;21.45;;
209;SDS011;90;48.810;9.120;2023-01-25T14:43:54;49.42;;;22.02;;
209;SDS011;90;48.810;9.120;2023-01-25T14:46:23;48.83;;;23.10;;
209;SDS011;90;48.810;9.120;2023-01-25T14:49:05;52.53;;;22.90;;
209;SDS011;90;48.810;9.120;2023-01-25T14:51:33;49.10;;;22.25;;
209;SDS011;90;48.810;9.120;2023-01-25T14:54:09;53.25;;;21.85;;
209;SDS011;90;48.810;9.120;2023-01-25T14:56:41;45.90;;;22.00;;
209;SDS011;90;48.810;9.120;2023-01-25T15:02:03;49.88;;;22.70;;
209;SDS011;90;48.810;9.120;2023-01-25T15:04:49;43.17;;;21.60;;
209;SDS011;90;48.810;9.120;2023-01-25T15:07:40;46.85;;;21.98;;
209;SDS011;90;48.810;9.120;2023-01-25T15:10:18;52.92;;;21.95;;
209;SDS011;90;48.810;9.120;2023-01-25T15:12:54;47.50;;;21.05;;
209;SDS011;90;48.810;9.120;2023-01-25T15:15:24;48.30;;;21.38;;
209;SDS011;90;48.810;9.120;2023-01-25T15:17:52;49.35;;;21.30;;
209;SDS011;90;48.810;9.120;2023-01-25T15:20:30;52.17;;;22.15;;
209;SDS011;90;48.810;9.120;2023-01-25T15:23:00;50.03;;;22.08;;
209;SDS011;90;48.810;9.120;2023-01-25T15:25:48;49.45;;;21.77;;
209;SDS011;90;48.810;9.120;2023-01-25T15:28:16;46.22;;;21.65;;
209;SDS011;90;48.810;9.120;2023-01-25T15:30:43;46.47;;;21.38;;
209;SDS011;90;48.810;9.120;2023-01-25T15:33:12;51.05;;;21.75;;
209;SDS011;90;48.810;9.120;2023-01-25T15:35:44;47.40;;;20.50;;
209;SDS011;90;48.810;9.120;2023-01-25T15:38:12;49.95;;;22.35;;
209;SDS011;90;48.810;9.120;2023-01-25T15:40:39;48.83;;;23.23;;
209;SDS011;90;48.810;9.120;2023-01-25T15:43:09;53.60;;;22.17;;
209;SDS011;90;48.810;9.120;2023-01-25T15:45:38;44.60;;;22.52;;
209;SDS011;90;48.810;9.120;2023-01-25T15:48:08;52.10;;;23.85;;
209;SDS011;90;48.810;9.120;2023-01-25T15:50:38;44.42;;;22.00;;
209;SDS011;90;48.810;9.120;2023-01-25T15:53:05;49.78;;;22.33;;
209;SDS011;90;48.810;9.120;2023-01-25T15:55:33;59.20;;;24.45;;
209;SDS011;90;48.810;9.120;2023-01-25T15:58:05;50.10;;;22.02;;
209;SDS011;90;48.810;9.120;2023-01-25T16:00:33;53.75;;;22.23;;
209;SDS011;90;48.810;9.120;2023-01-25T16:03:00;51.00;;;23.00;;
209;SDS011;90;48.810;9.120;2023-01-25T16:05:27;58.33;;;22.15;;